createdAt,value
2019-03-06T00:00:19.524Z,98201.78
2019-03-06T00:02:48.839Z,98206.36
2019-03-06T00:05:17.206Z,98153.16
2019-03-06T00:07:45.522Z,98210.66
2019-03-06T00:10:28.268Z,98213.36
2019-03-06T00:12:56.663Z,98216.63
2019-03-06T00:15:25.028Z,98215.88
2019-03-06T00:17:53.332Z,98216.94
2019-03-06T00:20:21.714Z,98226.21
2019-03-06T00:22:50.926Z,98217.87
2019-03-06T00:25:19.382Z,98228.45
2019-03-06T00:27:47.738Z,98226.45
2019-03-06T00:30:17.291Z,98232.98
2019-03-06T00:32:45.776Z,98228.00
2019-03-06T00:35:19.379Z,98221.69
2019-03-06T00:37:48.037Z,98223.09
2019-03-06T00:40:18.069Z,98231.36
2019-03-06T00:42:48.074Z,98229.77
2019-03-06T00:45:16.364Z,98233.52
2019-03-06T00:47:44.685Z,98234.43
2019-03-06T00:50:13.324Z,98235.58
2019-03-06T00:52:41.644Z,98245.16
2019-03-06T00:55:12.084Z,98237.97
2019-03-06T00:57:40.401Z,98236.16
2019-03-06T01:00:18.718Z,98241.89
2019-03-06T01:02:47.183Z,98244.73
2019-03-06T01:05:15.555Z,98250.00
2019-03-06T01:07:43.852Z,98245.08
2019-03-06T01:10:16.058Z,98245.08
2019-03-06T01:12:44.779Z,98237.95
2019-03-06T01:15:17.903Z,98252.98
2019-03-06T01:17:46.197Z,98238.25
2019-03-06T01:20:15.456Z,98241.91
2019-03-06T01:22:43.813Z,98244.74
2019-03-06T01:25:15.043Z,98248.59
2019-03-06T01:27:43.412Z,98246.52
2019-03-06T01:30:17.999Z,98243.86
2019-03-06T01:32:47.951Z,98237.55
2019-03-06T01:35:17.887Z,98240.33
2019-03-06T01:37:47.976Z,98246.04
2019-03-06T01:40:27.503Z,98241.26
2019-03-06T01:42:57.454Z,98246.19
2019-03-06T01:45:25.813Z,98250.38
2019-03-06T01:47:54.151Z,98240.23
2019-03-06T01:50:22.455Z,98249.86
2019-03-06T01:52:51.025Z,98241.70
2019-03-06T01:55:19.469Z,98244.25
2019-03-06T01:57:47.767Z,98246.41
2019-03-06T02:00:17.599Z,98246.44
2019-03-06T02:02:46.063Z,98245.55
2019-03-06T02:05:14.451Z,98246.44
2019-03-06T02:07:42.820Z,98243.52
2019-03-06T02:10:13.866Z,98235.85
2019-03-06T02:12:42.235Z,98254.78
2019-03-06T02:15:13.742Z,98250.97
2019-03-06T02:17:42.130Z,98245.93
2019-03-06T02:20:17.863Z,98245.95
2019-03-06T02:22:46.745Z,98252.23
2019-03-06T02:25:15.485Z,98246.07
2019-03-06T02:27:44.152Z,98245.45
2019-03-06T02:30:24.599Z,98233.73
2019-03-06T02:32:52.979Z,98243.38
2019-03-06T02:35:21.275Z,98244.97
2019-03-06T02:37:49.671Z,98241.28
2019-03-06T02:40:18.040Z,98243.85
2019-03-06T02:42:46.413Z,98242.41
2019-03-06T02:45:18.877Z,98247.63
2019-03-06T02:47:47.171Z,98248.61
2019-03-06T02:50:16.940Z,98252.25
2019-03-06T02:52:45.299Z,98258.61
2019-03-06T02:55:17.955Z,98251.56
2019-03-06T02:57:51.061Z,98251.52
2019-03-06T03:00:34.342Z,98246.77
2019-03-06T03:03:14.036Z,98247.87
2019-03-06T03:05:44.077Z,98246.27
2019-03-06T03:08:12.437Z,98239.98
2019-03-06T03:10:40.732Z,98239.78
2019-03-06T03:13:09.045Z,98238.54
2019-03-06T03:15:37.408Z,98234.72
2019-03-06T03:18:05.852Z,98234.55
2019-03-06T03:20:34.156Z,98238.54
2019-03-06T03:23:02.490Z,98239.08
2019-03-06T03:25:30.990Z,98237.02
2019-03-06T03:27:59.291Z,98235.85
2019-03-06T03:30:27.601Z,98237.47
2019-03-06T03:32:56.064Z,98233.19
2019-03-06T03:35:24.379Z,98232.17
2019-03-06T03:37:52.678Z,98227.91
2019-03-06T03:40:21.065Z,98224.36
2019-03-06T03:42:49.365Z,98221.13
2019-03-06T03:45:17.738Z,98229.77
2019-03-06T03:47:46.061Z,98229.34
2019-03-06T03:50:14.427Z,98235.91
2019-03-06T03:52:42.923Z,98235.03
2019-03-06T03:55:13.821Z,98236.08
2019-03-06T03:57:42.117Z,98238.00
2019-03-06T04:00:13.677Z,98247.83
2019-03-06T04:02:42.151Z,98237.23
2019-03-06T04:05:11.677Z,98236.56
2019-03-06T04:07:40.360Z,98242.28
2019-03-06T04:10:13.631Z,98235.54
2019-03-06T04:12:42.088Z,98235.25
2019-03-06T04:15:15.604Z,98227.30
2019-03-06T04:17:44.328Z,98230.67
2019-03-06T04:20:14.272Z,98231.97
2019-03-06T04:22:42.597Z,98230.11
2019-03-06T04:25:11.625Z,98224.44
2019-03-06T04:27:39.926Z,98217.22
2019-03-06T04:30:13.321Z,98223.14
2019-03-06T04:32:41.679Z,98230.70
2019-03-06T04:35:10.233Z,98236.32
2019-03-06T04:37:38.532Z,98231.48
2019-03-06T04:40:12.425Z,98230.73
2019-03-06T04:42:40.724Z,98225.30
2019-03-06T04:45:16.570Z,98231.39
2019-03-06T04:47:44.950Z,98240.70
2019-03-06T04:50:14.196Z,98239.64
2019-03-06T04:52:43.030Z,98242.16
2019-03-06T04:55:13.775Z,98235.54
2019-03-06T04:57:42.132Z,98234.39
2019-03-06T05:00:18.167Z,98230.08
2019-03-06T05:02:46.491Z,98222.33
2019-03-06T05:05:15.222Z,98222.28
2019-03-06T05:07:43.607Z,98221.83
2019-03-06T05:10:15.437Z,98224.30
2019-03-06T05:12:43.757Z,98223.27
2019-03-06T05:15:16.703Z,98217.56
2019-03-06T05:17:49.940Z,98214.32
2019-03-06T05:20:18.632Z,98217.31
2019-03-06T05:22:47.081Z,98214.33
2019-03-06T05:25:15.449Z,98205.89
2019-03-06T05:27:44.333Z,98206.02
2019-03-06T05:30:14.249Z,98204.14
2019-03-06T05:32:43.085Z,98207.70
2019-03-06T05:35:14.577Z,98199.13
2019-03-06T05:37:48.728Z,98210.92
2019-03-06T05:40:17.034Z,98210.80
2019-03-06T05:42:45.337Z,98204.91
2019-03-06T05:45:15.717Z,98204.91
2019-03-06T05:47:43.820Z,98207.36
2019-03-06T05:50:12.120Z,98205.08
2019-03-06T05:52:40.443Z,98204.08
2019-03-06T05:55:09.112Z,98196.13
2019-03-06T05:57:37.426Z,98196.22
2019-03-06T06:00:11.768Z,98190.42
2019-03-06T06:02:40.270Z,98190.70
2019-03-06T06:05:11.974Z,98198.67
2019-03-06T06:07:41.569Z,98202.63
2019-03-06T06:10:14.920Z,98198.47
2019-03-06T06:12:43.294Z,98197.89
2019-03-06T06:15:14.217Z,98193.19
2019-03-06T06:17:42.585Z,98191.47
2019-03-06T06:20:12.841Z,98194.63
2019-03-06T06:22:43.186Z,98184.28
2019-03-06T06:25:11.593Z,98184.28
2019-03-06T06:27:39.870Z,98189.27
2019-03-06T06:30:10.923Z,98187.25
2019-03-06T06:32:39.230Z,98188.15
2019-03-06T06:35:10.069Z,98186.26
2019-03-06T06:37:38.754Z,98189.52
2019-03-06T06:40:09.986Z,98189.72
2019-03-06T06:42:38.315Z,98186.47
2019-03-06T06:45:09.429Z,98184.04
2019-03-06T06:47:39.394Z,98192.34
2019-03-06T06:50:09.910Z,98194.30
2019-03-06T06:52:50.140Z,98192.49
2019-03-06T06:55:21.622Z,98193.33
2019-03-06T06:57:58.983Z,98181.92
2019-03-06T07:00:32.100Z,98186.05
2019-03-06T07:03:23.552Z,98184.69
2019-03-06T07:06:02.051Z,98186.41
2019-03-06T07:08:40.522Z,98185.61
2019-03-06T07:11:13.459Z,98184.63
2019-03-06T07:13:46.671Z,98186.21
2019-03-06T07:16:34.789Z,98194.41
2019-03-06T07:19:10.882Z,98198.28
2019-03-06T07:21:49.788Z,98201.36
2019-03-06T07:24:22.237Z,98202.52
2019-03-06T07:27:19.641Z,98197.66
2019-03-06T07:29:52.188Z,98199.93
2019-03-06T07:32:22.452Z,98202.20
2019-03-06T07:38:22.033Z,98204.40
2019-03-06T07:40:54.667Z,98200.66
2019-03-06T07:43:41.087Z,98195.84
2019-03-06T07:46:16.674Z,98192.20
2019-03-06T07:48:52.888Z,98189.59
2019-03-06T07:51:39.150Z,98182.70
2019-03-06T07:54:12.716Z,98178.00
2019-03-06T07:56:45.068Z,98188.94
2019-03-06T07:59:13.763Z,98185.84
2019-03-06T08:02:00.044Z,98180.97
2019-03-06T08:04:28.374Z,98169.67
2019-03-06T08:06:58.311Z,98171.60
2019-03-06T08:09:27.050Z,98167.91
2019-03-06T08:11:57.081Z,98175.97
2019-03-06T08:14:43.127Z,98170.98
2019-03-06T08:17:25.047Z,98163.64
2019-03-06T08:20:11.725Z,98151.66
2019-03-06T08:22:47.821Z,98147.48
2019-03-06T08:25:29.721Z,98143.26
2019-03-06T08:27:58.036Z,98132.69
2019-03-06T08:30:27.982Z,98126.38
2019-03-06T08:32:56.350Z,98124.72
2019-03-06T08:35:24.607Z,98121.73
2019-03-06T08:37:52.934Z,98130.20
2019-03-06T08:40:21.235Z,98126.37
2019-03-06T08:42:49.954Z,98123.28
2019-03-06T08:45:36.232Z,98129.75
2019-03-06T08:48:09.413Z,98130.56
2019-03-06T08:50:42.634Z,98120.50
2019-03-06T08:53:12.586Z,98099.64
2019-03-06T08:55:45.579Z,98092.92
2019-03-06T08:58:16.075Z,98090.41
2019-03-06T09:00:46.191Z,98084.34
2019-03-06T09:03:16.526Z,98090.69
2019-03-06T09:05:46.468Z,98080.86
2019-03-06T09:08:33.779Z,98087.68
2019-03-06T09:11:06.444Z,98069.52
2019-03-06T09:13:38.943Z,98064.22
2019-03-06T09:16:25.064Z,98054.94
2019-03-06T09:19:11.568Z,98046.33
2019-03-06T09:21:57.894Z,98035.34
2019-03-06T09:24:39.679Z,98027.09
2019-03-06T09:27:15.180Z,98013.73
2019-03-06T09:29:48.247Z,97999.30
2019-03-06T09:32:20.731Z,97992.36
2019-03-06T09:34:53.504Z,97996.03
2019-03-06T09:37:29.410Z,97994.95
2019-03-06T09:39:59.352Z,97987.39
2019-03-06T09:42:41.317Z,97982.80
2019-03-06T09:45:12.052Z,97969.02
2019-03-06T09:47:42.012Z,97957.90
2019-03-06T09:50:12.519Z,97950.78
2019-03-06T09:52:58.276Z,97952.98
2019-03-06T09:55:30.646Z,97957.13
2019-03-06T09:58:09.358Z,97959.21
2019-03-06T10:00:39.364Z,97952.92
2019-03-06T10:03:14.954Z,97942.63
2019-03-06T10:05:56.670Z,97945.88
2019-03-06T10:08:42.750Z,97952.66
2019-03-06T10:11:12.687Z,97952.35
2019-03-06T10:13:48.725Z,97944.90
2019-03-06T10:16:23.153Z,97940.04
2019-03-06T10:18:55.942Z,97945.19
2019-03-06T10:21:25.709Z,97942.03
2019-03-06T10:23:54.193Z,97939.16
2019-03-06T10:26:22.978Z,97926.03
2019-03-06T10:28:51.278Z,97923.24
2019-03-06T10:31:19.862Z,97927.80
2019-03-06T10:33:48.258Z,97914.48
2019-03-06T10:36:16.630Z,97909.74
2019-03-06T10:38:45.023Z,97903.92
2019-03-06T10:41:13.592Z,97903.46
2019-03-06T10:43:48.897Z,97892.92
2019-03-06T10:46:11.951Z,97892.91
2019-03-06T10:48:40.268Z,97885.83
2019-03-06T10:51:08.883Z,97890.31
2019-03-06T10:53:41.567Z,97890.98
2019-03-06T10:56:07.351Z,97886.56
2019-03-06T10:58:35.787Z,97880.20
2019-03-06T11:01:05.447Z,97873.22
2019-03-06T11:03:35.449Z,97870.00
2019-03-06T11:06:04.194Z,97877.02
2019-03-06T11:08:32.568Z,97870.98
2019-03-06T11:11:00.938Z,97855.94
2019-03-06T11:13:29.605Z,97844.66
2019-03-06T11:15:57.943Z,97835.41
2019-03-06T11:18:26.325Z,97829.92
2019-03-06T11:20:54.684Z,97827.92
2019-03-06T11:23:24.973Z,97823.38
2019-03-06T11:25:53.534Z,97820.59
2019-03-06T11:28:21.972Z,97818.05
2019-03-06T11:30:56.003Z,97809.62
2019-03-06T11:33:25.823Z,97805.67
2019-03-06T11:35:56.761Z,97791.77
2019-03-06T11:38:25.993Z,97791.14
2019-03-06T11:40:55.431Z,97777.73
2019-03-06T11:43:23.721Z,97765.54
2019-03-06T11:45:52.107Z,97757.97
2019-03-06T11:48:20.543Z,97751.53
2019-03-06T11:50:48.931Z,97745.52
2019-03-06T11:53:17.294Z,97747.73
2019-03-06T11:55:45.689Z,97750.02
2019-03-06T11:58:17.086Z,97740.86
2019-03-06T12:00:46.745Z,97738.23
2019-03-06T12:03:18.455Z,97742.27
2019-03-06T12:05:47.826Z,97737.25
2019-03-06T12:08:17.973Z,97732.44
2019-03-06T12:10:46.411Z,97729.49
2019-03-06T12:13:16.469Z,97724.58
2019-03-06T12:15:51.977Z,97717.77
2019-03-06T12:18:22.909Z,97710.27
2019-03-06T12:20:51.561Z,97704.60
2019-03-06T12:23:19.918Z,97694.80
2019-03-06T12:25:48.304Z,97683.16
2019-03-06T12:28:17.166Z,97678.03
2019-03-06T12:30:45.957Z,97681.83
2019-03-06T12:33:19.950Z,97670.86
2019-03-06T12:35:48.399Z,97658.77
2019-03-06T12:38:17.577Z,97648.58
2019-03-06T12:40:45.947Z,97634.75
2019-03-06T12:43:14.321Z,97625.58
2019-03-06T12:45:46.164Z,97610.05
2019-03-06T12:48:17.315Z,97618.27
2019-03-06T12:50:54.089Z,97610.16
2019-03-06T12:53:16.038Z,97618.69
2019-03-06T12:55:44.335Z,97617.28
2019-03-06T12:58:12.729Z,97620.14
2019-03-06T13:00:41.483Z,97609.00
2019-03-06T13:03:09.811Z,97592.95
2019-03-06T13:05:38.547Z,97590.78
2019-03-06T13:08:06.874Z,97586.67
2019-03-06T13:10:35.520Z,97584.42
2019-03-06T13:13:03.887Z,97583.84
2019-03-06T13:15:32.747Z,97582.97
2019-03-06T13:18:01.485Z,97575.06
2019-03-06T13:20:29.878Z,97556.95
2019-03-06T13:22:58.178Z,97564.11
2019-03-06T13:25:26.619Z,97561.95
2019-03-06T13:27:56.134Z,97551.62
2019-03-06T13:30:26.901Z,97551.76
2019-03-06T13:33:02.342Z,97548.46
2019-03-06T13:35:32.351Z,97538.50
2019-03-06T13:38:00.730Z,97536.73
2019-03-06T13:40:29.089Z,97528.11
2019-03-06T13:42:57.409Z,97534.30
2019-03-06T13:45:25.771Z,97532.95
2019-03-06T13:47:54.431Z,97528.40
2019-03-06T13:50:24.411Z,97531.03
2019-03-06T13:52:52.931Z,97525.36
2019-03-06T13:55:21.295Z,97522.67
2019-03-06T13:57:49.657Z,97518.80
2019-03-06T14:00:24.760Z,97511.83
2019-03-06T14:02:53.593Z,97509.62
2019-03-06T14:05:22.747Z,97511.97
2019-03-06T14:07:56.279Z,97512.35
2019-03-06T14:10:26.842Z,97505.22
2019-03-06T14:12:55.675Z,97500.41
2019-03-06T14:15:24.277Z,97493.90
2019-03-06T14:17:52.656Z,97492.05
2019-03-06T14:20:22.465Z,97491.09
2019-03-06T14:22:51.248Z,97484.30
2019-03-06T14:25:20.095Z,97485.74
2019-03-06T14:27:48.763Z,97472.83
2019-03-06T14:30:25.809Z,97467.44
2019-03-06T14:32:54.114Z,97471.20
2019-03-06T14:35:22.431Z,97473.91
2019-03-06T14:37:50.733Z,97464.05
2019-03-06T14:40:24.783Z,97459.50
2019-03-06T14:42:53.350Z,97449.95
2019-03-06T14:45:21.648Z,97450.93
2019-03-06T14:47:50.440Z,97439.15
2019-03-06T14:50:18.739Z,97434.40
2019-03-06T14:52:47.152Z,97439.49
2019-03-06T14:55:16.009Z,97425.66
2019-03-06T14:57:44.399Z,97423.07
2019-03-06T15:00:20.611Z,97422.06
2019-03-06T15:02:49.020Z,97425.59
2019-03-06T15:05:18.929Z,97425.90
2019-03-06T15:07:47.468Z,97415.26
2019-03-06T15:10:18.076Z,97415.50
2019-03-06T15:12:46.955Z,97408.89
2019-03-06T15:15:19.752Z,97408.22
2019-03-06T15:17:48.679Z,97403.80
2019-03-06T15:20:22.536Z,97392.27
2019-03-06T15:22:52.074Z,97382.62
2019-03-06T15:25:28.585Z,97376.29
2019-03-06T15:27:57.011Z,97378.39
2019-03-06T15:30:25.513Z,97379.22
2019-03-06T15:32:53.815Z,97368.23
2019-03-06T15:35:22.664Z,97365.28
2019-03-06T15:37:51.026Z,97360.56
2019-03-06T15:40:27.118Z,97353.36
2019-03-06T15:42:55.475Z,97354.62
2019-03-06T15:45:25.827Z,97358.80
2019-03-06T15:47:55.211Z,97355.97
2019-03-06T15:50:23.648Z,97341.18
2019-03-06T15:52:54.054Z,97327.19
2019-03-06T15:55:25.264Z,97327.37
2019-03-06T15:57:53.713Z,97328.16
2019-03-06T16:00:45.922Z,97318.41
2019-03-06T16:03:14.583Z,97322.78
2019-03-06T16:05:43.033Z,97319.45
2019-03-06T16:08:13.223Z,97315.06
2019-03-06T16:10:42.891Z,97304.29
2019-03-06T16:13:11.525Z,97306.22
2019-03-06T16:15:39.908Z,97301.52
2019-03-06T16:18:09.738Z,97314.77
2019-03-06T16:20:38.123Z,97298.77
2019-03-06T16:23:06.588Z,97285.30
2019-03-06T16:25:37.333Z,97292.38
2019-03-06T16:28:05.895Z,97297.52
2019-03-06T16:30:34.262Z,97290.67
2019-03-06T16:33:02.952Z,97293.95
2019-03-06T16:35:31.324Z,97288.25
2019-03-06T16:37:59.643Z,97279.89
2019-03-06T16:40:30.477Z,97285.14
2019-03-06T16:42:59.060Z,97281.87
2019-03-06T16:45:28.772Z,97277.98
2019-03-06T16:47:57.616Z,97271.31
2019-03-06T16:50:26.020Z,97268.30
2019-03-06T16:52:54.583Z,97267.30
2019-03-06T16:55:24.715Z,97264.27
2019-03-06T16:57:53.390Z,97259.92
2019-03-06T17:00:33.780Z,97260.50
2019-03-06T17:03:03.803Z,97263.51
2019-03-06T17:05:32.716Z,97254.66
2019-03-06T17:08:01.807Z,97256.72
2019-03-06T17:10:32.238Z,97254.58
2019-03-06T17:13:00.591Z,97255.78
2019-03-06T17:15:31.246Z,97245.58
2019-03-06T17:18:00.482Z,97244.73
2019-03-06T17:20:33.771Z,97246.10
2019-03-06T17:23:02.205Z,97244.93
2019-03-06T17:25:32.031Z,97247.84
2019-03-06T17:28:00.467Z,97243.17
2019-03-06T17:30:33.126Z,97225.47
2019-03-06T17:33:10.477Z,97242.93
2019-03-06T17:35:39.136Z,97244.05
2019-03-06T17:38:09.887Z,97241.13
2019-03-06T17:40:38.308Z,97244.61
2019-03-06T17:43:07.772Z,97242.38
2019-03-06T17:45:36.817Z,97238.98
2019-03-06T17:48:05.560Z,97237.77
2019-03-06T17:50:33.919Z,97235.11
2019-03-06T17:53:02.224Z,97220.58
2019-03-06T17:55:30.638Z,97238.53
2019-03-06T17:57:59.239Z,97234.22
2019-03-06T18:00:48.471Z,97233.38
2019-03-06T18:03:21.241Z,97232.14
2019-03-06T18:05:49.888Z,97230.70
2019-03-06T18:08:18.190Z,97240.17
2019-03-06T18:10:46.926Z,97232.63
2019-03-06T18:13:15.329Z,97235.12
2019-03-06T18:15:44.484Z,97238.44
2019-03-06T18:18:13.003Z,97237.34
2019-03-06T18:20:41.391Z,97235.41
2019-03-06T18:23:09.771Z,97238.79
2019-03-06T18:25:38.154Z,97241.88
2019-03-06T18:28:06.837Z,97240.84
2019-03-06T18:30:35.219Z,97235.07
2019-03-06T18:33:03.813Z,97233.93
2019-03-06T18:35:33.843Z,97235.75
2019-03-06T18:38:02.132Z,97227.88
2019-03-06T18:40:30.900Z,97219.55
2019-03-06T18:42:59.706Z,97218.33
2019-03-06T18:45:28.012Z,97217.00
2019-03-06T18:47:56.771Z,97220.81
2019-03-06T18:50:25.649Z,97223.88
2019-03-06T18:52:54.020Z,97217.88
2019-03-06T18:55:22.420Z,97222.98
2019-03-06T18:57:50.784Z,97217.89
2019-03-06T19:00:25.251Z,97221.05
2019-03-06T19:02:53.873Z,97216.69
2019-03-06T19:05:22.926Z,97211.50
2019-03-06T19:07:52.064Z,97210.81
2019-03-06T19:10:22.767Z,97203.25
2019-03-06T19:12:51.950Z,97206.44
2019-03-06T19:15:25.012Z,97194.73
2019-03-06T19:17:53.487Z,97194.73
2019-03-06T19:20:22.726Z,97200.72
2019-03-06T19:22:52.383Z,97203.45
2019-03-06T19:25:20.914Z,97201.44
2019-03-06T19:27:49.678Z,97199.29
2019-03-06T19:30:25.887Z,97204.77
2019-03-06T19:32:54.436Z,97207.06
2019-03-06T19:35:25.067Z,97195.91
2019-03-06T19:37:53.384Z,97200.19
2019-03-06T19:40:21.867Z,97198.98
2019-03-06T19:42:50.238Z,97191.72
2019-03-06T19:45:27.740Z,97184.94
2019-03-06T19:47:56.051Z,97190.57
2019-03-06T19:50:26.653Z,97186.72
2019-03-06T19:52:55.145Z,97186.17
2019-03-06T19:55:24.070Z,97186.08
2019-03-06T19:58:03.566Z,97182.30
2019-03-06T20:00:33.056Z,97174.42
2019-03-06T20:03:02.101Z,97173.36
2019-03-06T20:05:40.966Z,97169.82
2019-03-06T20:08:13.801Z,97174.16
2019-03-06T20:10:42.286Z,97166.58
2019-03-06T20:13:11.539Z,97164.36
2019-03-06T20:15:40.894Z,97159.14
2019-03-06T20:18:09.326Z,97162.64
2019-03-06T20:20:37.701Z,97159.91
2019-03-06T20:23:06.097Z,97163.04
2019-03-06T20:25:34.465Z,97156.15
2019-03-06T20:28:02.850Z,97158.37
2019-03-06T20:30:31.288Z,97161.00
2019-03-06T20:32:59.731Z,97163.34
2019-03-06T20:35:28.031Z,97159.53
2019-03-06T20:37:58.642Z,97158.36
2019-03-06T20:40:27.048Z,97159.95
2019-03-06T20:42:55.399Z,97159.91
2019-03-06T20:45:23.716Z,97156.61
2019-03-06T20:47:52.086Z,97154.27
2019-03-06T20:50:21.174Z,97149.30
2019-03-06T20:52:50.442Z,97147.28
2019-03-06T20:55:19.578Z,97145.17
2019-03-06T20:57:47.903Z,97151.73
2019-03-06T21:00:25.578Z,97156.13
2019-03-06T21:02:54.040Z,97147.76
2019-03-06T21:05:22.413Z,97149.42
2019-03-06T21:07:50.800Z,97144.18
2019-03-06T21:10:20.146Z,97145.44
2019-03-06T21:12:48.559Z,97139.89
2019-03-06T21:15:21.994Z,97141.62
2019-03-06T21:17:50.355Z,97142.52
2019-03-06T21:20:24.795Z,97137.07
2019-03-06T21:22:53.152Z,97142.87
2019-03-06T21:25:22.190Z,97139.77
2019-03-06T21:27:50.936Z,97135.13
2019-03-06T21:30:23.237Z,97139.69
2019-03-06T21:32:53.604Z,97130.51
2019-03-06T21:35:22.066Z,97132.09
2019-03-06T21:37:50.476Z,97132.23
2019-03-06T21:40:19.962Z,97140.53
2019-03-06T21:42:48.646Z,97145.58
2019-03-06T21:45:16.974Z,97142.13
2019-03-06T21:47:45.281Z,97136.66
2019-03-06T21:50:15.826Z,97133.78
2019-03-06T21:52:44.231Z,97132.94
2019-03-06T21:55:14.382Z,97132.84
2019-03-06T21:57:42.861Z,97132.72
2019-03-06T22:00:17.390Z,97132.72
2019-03-06T22:02:46.160Z,97133.80
2019-03-06T22:05:14.552Z,97128.19
2019-03-06T22:07:42.910Z,97123.78
2019-03-06T22:10:12.885Z,97119.84
2019-03-06T22:12:41.737Z,97122.56
2019-03-06T22:15:17.893Z,97116.78
2019-03-06T22:17:46.189Z,97109.87
2019-03-06T22:20:15.244Z,97102.02
2019-03-06T22:22:43.642Z,97100.47
2019-03-06T22:25:16.609Z,97102.38
2019-03-06T22:27:45.230Z,97082.77
2019-03-06T22:30:22.839Z,97071.09
2019-03-06T22:32:51.680Z,97049.28
2019-03-06T22:35:20.112Z,97038.34
2019-03-06T22:37:48.503Z,97028.84
2019-03-06T22:40:20.758Z,97037.09
2019-03-06T22:42:49.176Z,97043.63
2019-03-06T22:45:19.134Z,97043.86
2019-03-06T22:47:47.693Z,97039.84
2019-03-06T22:50:17.046Z,97046.96
2019-03-06T22:52:45.537Z,97040.55
2019-03-06T22:55:20.908Z,97036.73
2019-03-06T22:57:49.354Z,97024.59
2019-03-06T23:00:29.624Z,97024.11
2019-03-06T23:02:58.673Z,97023.74
2019-03-06T23:05:29.286Z,97021.20
2019-03-06T23:07:57.667Z,97011.13
2019-03-06T23:10:26.111Z,97008.27
2019-03-06T23:12:54.805Z,97010.88
2019-03-06T23:15:23.100Z,97016.49
2019-03-06T23:17:51.778Z,97008.05
2019-03-06T23:20:20.134Z,97020.41
2019-03-06T23:22:48.519Z,97017.43
2019-03-06T23:25:18.208Z,97013.27
2019-03-06T23:27:46.820Z,97019.69
2019-03-06T23:30:16.357Z,97021.54
2019-03-06T23:32:44.719Z,97022.72
2019-03-06T23:35:13.121Z,97028.73
2019-03-06T23:37:41.419Z,97035.88
2019-03-06T23:40:11.079Z,97041.30
2019-03-06T23:42:39.447Z,97029.75
2019-03-06T23:45:09.979Z,97032.16
2019-03-06T23:47:38.783Z,97034.83
2019-03-06T23:50:09.227Z,97031.97
2019-03-06T23:52:39.170Z,97031.33
2019-03-06T23:55:07.839Z,97027.72
2019-03-06T23:57:36.164Z,97026.77
